ADDS METAR Data INFO
IDs: Format: Raw Decoded Include TAF

Data at: 0545 UTC 22 Nov 2017

KDGW 220453Z AUTO 19004KT 10SM CLR 00/M02 A3021 RMK AO2 SLP253 T00001017
KDGW 220353Z AUTO 00000KT 10SM CLR M01/M02 A3021 RMK AO2 SLP259 T10111022
KDGW 220253Z AUTO 15005KT 10SM CLR M01/M02 A3019 RMK AO2 SLP254 T10061022 58006
KDGW 220153Z AUTO 12006KT 10SM CLR 00/M02 A3020 RMK AO2 SLP258 T00001022
KDGW 220053Z AUTO 15006KT 10SM CLR 00/M03 A3021 RMK AO2 SLP256 T00001028
KDGW 212353Z AUTO 13008KT 10SM CLR 02/M03 A3021 RMK AO2 SLP251 T00221028 10072 20011 58012
KDGW 212253Z AUTO 15005KT 10SM CLR 07/M02 A3024 RMK AO2 SLP244 T00671022
KDGW 212153Z AUTO 14004KT 10SM CLR 07/M02 A3024 RMK AO2 SLP243 T00721017
KDGW 212053Z AUTO 17004KT 10SM CLR 06/M02 A3026 RMK AO2 SLP246 T00611017 56018
KDGW 211953Z AUTO VRB04KT 10SM CLR 06/M02 A3027 RMK AO2 SLP248 T00561017
KDGW 211853Z AUTO VRB03KT 10SM CLR 04/M03 A3028 RMK AO2 SLP255 T00391028
KDGW 211753Z AUTO 00000KT 10SM CLR 02/M03 A3032 RMK AO2 SLP276 T00171033 10017 21022 50006
KDGW 211653Z AUTO VRB04KT 10SM OVC042 M01/M04 A3032 RMK AO2 SLP284 T10061039
KDGW 211627Z AUTO 31003KT 10SM SCT015 OVC043 M01/M04 A3032 RMK AO2 T10111044
KDGW 211553Z AUTO 32006KT 10SM OVC015 M02/M05 A3032 RMK AO2 SLP279 T10171050
KDGW 211539Z AUTO 36004KT 10SM OVC016 M02/M05 A3031 RMK AO2 T10171050
KDGW 211453Z AUTO 35007KT 10SM OVC012 M02/M04 A3029 RMK AO2 SLP268 T10221044 51038
KDGW 211403Z AUTO 35005KT 10SM OVC013 M02/M04 A3026 RMK AO2 T10221039
KDGW 211353Z AUTO 35005KT 10SM OVC015 M02/M04 A3025 RMK AO2 SLP250 T10221039
KDGW 211312Z AUTO 32003KT 10SM BKN019 OVC039 M02/M03 A3023 RMK AO2 T10171028
KDGW 211253Z AUTO 36011KT 10SM FEW019 OVC039 M02/M02 A3021 RMK AO2 PRESRR SLP238 T10171022
KDGW 211225Z AUTO 02013G21KT 10SM SCT007 OVC040 M01/M02 A3018 RMK AO2 T10111022
KDGW 211153Z AUTO 36012G21KT 10SM BKN006 BKN049 OVC065 M01/M01 A3016 RMK AO2 SLP219 T10061011 10067 21006 53049
KDGW 211144Z AUTO 01016G25KT 10SM SCT007 SCT025 OVC065 00/M01 A3015 RMK AO2 PRESRR T00001006
KDGW 211053Z AUTO 36012KT 10SM SCT060 BKN110 02/M01 A3010 RMK AO2 SLP191 T00171011
KDGW 210953Z AUTO 33007KT 10SM SCT075 OVC095 02/M03 A3005 RMK AO2 SLP173 T00221028
KDGW 210853Z AUTO 36012KT 10SM BKN110 04/M02 A3000 RMK AO2 PK WND 30026/0814 SLP148 T00441022 53047
KDGW 210753Z AUTO 30019G25KT 10SM BKN120 07/M02 A2993 RMK AO2 SLP117 T00671017
KDGW 210653Z AUTO 32016KT 10SM CLR 07/M02 A2988 RMK AO2 SLP100 T00671022 401280006
KDGW 210553Z AUTO 32008KT 10SM CLR 04/M03 A2984 RMK AO2 SLP090 T00441028 10100 20044 53007
KDGW 210453Z AUTO 33009KT 10SM CLR 05/M03 A2983 RMK AO2 SLP090 T00501033
KDGW 210353Z AUTO 27019G27KT 10SM CLR 08/M03 A2981 RMK AO2 PK WND 27027/0346 SLP077 T00831033
KDGW 210253Z AUTO 26012G26KT 10SM OVC110 09/M03 A2981 RMK AO2 PK WND 26026/0244 SLP079 T00891028 55000
KDGW 210153Z AUTO 27017KT 10SM SCT120 10/M04 A2981 RMK AO2 PK WND 27031/0136 SLP077 T01001039
KDGW 210053Z AUTO 28015KT 10SM CLR 09/M04 A2981 RMK AO2 SLP079 T00891044
KDGW 202353Z AUTO 29011G20KT 10SM CLR 09/M05 A2981 RMK AO2 PK WND 27034/2309 SLP079 T00891050 10128 20089 53011
KDGW 202253Z AUTO 26024G32KT 10SM CLR 09/M05 A2978 RMK AO2 PK WND 26036/2238 SLP066 T00941050
KDGW 202153Z AUTO 32011G18KT 10SM CLR 10/M05 A2978 RMK AO2 PK WND 27029/2136 SLP067 T01001050
KDGW 202053Z AUTO 28019G24KT 10SM CLR 10/M05 A2978 RMK AO2 PK WND 26034/2005 SLP069 T01001050 55003
KDGW 201953Z AUTO 27023G40KT 10SM CLR 11/M06 A2976 RMK AO2 PK WND 26040/1945 SLP064 T01111056
KDGW 201853Z AUTO 28027G35KT 10SM CLR 12/M06 A2976 RMK AO2 PK WND 27041/1820 SLP068 T01171061
KDGW 201753Z AUTO 27024G33KT 10SM CLR 11/M07 A2979 RMK AO2 PK WND 27039/1736 SLP074 T01111072 10111 20061 53014